sensor_id;sensor_type;location;lat;lon;timestamp;P1;durP1;ratioP1;P2;durP2;ratioP2
11614;SDS011;5863;52.832;4.758;2024-02-21T00:02:21;20.98;;;4.40;;
11614;SDS011;5863;52.832;4.758;2024-02-21T00:04:48;25.10;;;4.78;;
11614;SDS011;5863;52.832;4.758;2024-02-21T00:07:16;16.85;;;3.97;;
11614;SDS011;5863;52.832;4.758;2024-02-21T00:09:43;19.80;;;4.05;;
11614;SDS011;5863;52.832;4.758;2024-02-21T00:12:10;32.78;;;4.80;;
11614;SDS011;5863;52.832;4.758;2024-02-21T00:14:38;26.52;;;4.45;;
11614;SDS011;5863;52.832;4.758;2024-02-21T00:17:05;22.70;;;4.40;;
11614;SDS011;5863;52.832;4.758;2024-02-21T00:19:33;24.23;;;4.70;;
11614;SDS011;5863;52.832;4.758;2024-02-21T00:22:00;26.25;;;5.03;;
11614;SDS011;5863;52.832;4.758;2024-02-21T00:24:28;25.60;;;4.72;;
11614;SDS011;5863;52.832;4.758;2024-02-21T00:26:55;24.25;;;4.70;;
11614;SDS011;5863;52.832;4.758;2024-02-21T00:29:22;21.00;;;4.32;;
11614;SDS011;5863;52.832;4.758;2024-02-21T00:31:49;31.85;;;4.68;;
11614;SDS011;5863;52.832;4.758;2024-02-21T00:34:16;26.25;;;4.30;;
11614;SDS011;5863;52.832;4.758;2024-02-21T00:36:42;33.25;;;4.70;;
11614;SDS011;5863;52.832;4.758;2024-02-21T00:39:09;29.35;;;4.40;;
11614;SDS011;5863;52.832;4.758;2024-02-21T00:41:37;24.33;;;4.35;;
11614;SDS011;5863;52.832;4.758;2024-02-21T00:44:04;21.95;;;4.43;;
11614;SDS011;5863;52.832;4.758;2024-02-21T00:46:31;21.17;;;4.53;;
11614;SDS011;5863;52.832;4.758;2024-02-21T00:48:58;27.08;;;5.32;;
11614;SDS011;5863;52.832;4.758;2024-02-21T00:51:25;20.70;;;4.18;;
11614;SDS011;5863;52.832;4.758;2024-02-21T00:53:52;23.77;;;4.55;;
11614;SDS011;5863;52.832;4.758;2024-02-21T00:56:19;21.80;;;4.60;;
11614;SDS011;5863;52.832;4.758;2024-02-21T00:58:47;21.98;;;4.53;;
11614;SDS011;5863;52.832;4.758;2024-02-21T01:01:18;22.50;;;4.00;;
11614;SDS011;5863;52.832;4.758;2024-02-21T01:03:47;25.38;;;4.10;;
11614;SDS011;5863;52.832;4.758;2024-02-21T01:06:14;19.98;;;4.47;;
11614;SDS011;5863;52.832;4.758;2024-02-21T01:08:41;26.20;;;4.55;;
11614;SDS011;5863;52.832;4.758;2024-02-21T01:11:07;25.42;;;4.75;;
11614;SDS011;5863;52.832;4.758;2024-02-21T01:13:34;20.00;;;3.67;;
11614;SDS011;5863;52.832;4.758;2024-02-21T01:16:03;28.70;;;5.00;;
11614;SDS011;5863;52.832;4.758;2024-02-21T01:18:31;25.80;;;3.80;;
11614;SDS011;5863;52.832;4.758;2024-02-21T01:20:58;23.10;;;4.15;;
11614;SDS011;5863;52.832;4.758;2024-02-21T01:23:25;21.27;;;4.28;;
11614;SDS011;5863;52.832;4.758;2024-02-21T01:25:51;27.75;;;5.30;;
11614;SDS011;5863;52.832;4.758;2024-02-21T01:28:19;35.95;;;4.95;;
11614;SDS011;5863;52.832;4.758;2024-02-21T01:30:46;23.98;;;4.43;;
11614;SDS011;5863;52.832;4.758;2024-02-21T01:33:14;30.13;;;4.32;;
11614;SDS011;5863;52.832;4.758;2024-02-21T01:35:41;26.52;;;5.07;;
11614;SDS011;5863;52.832;4.758;2024-02-21T01:38:08;27.45;;;5.47;;
11614;SDS011;5863;52.832;4.758;2024-02-21T01:40:35;21.52;;;4.07;;
11614;SDS011;5863;52.832;4.758;2024-02-21T01:43:02;32.75;;;4.82;;
11614;SDS011;5863;52.832;4.758;2024-02-21T01:45:29;28.95;;;5.15;;
11614;SDS011;5863;52.832;4.758;2024-02-21T01:47:57;22.35;;;5.13;;
11614;SDS011;5863;52.832;4.758;2024-02-21T01:50:25;19.13;;;4.38;;
11614;SDS011;5863;52.832;4.758;2024-02-21T01:52:52;25.05;;;4.60;;
11614;SDS011;5863;52.832;4.758;2024-02-21T01:55:19;30.95;;;5.13;;
11614;SDS011;5863;52.832;4.758;2024-02-21T01:57:46;26.02;;;5.45;;
11614;SDS011;5863;52.832;4.758;2024-02-21T02:00:13;27.83;;;5.07;;
11614;SDS011;5863;52.832;4.758;2024-02-21T02:02:42;26.92;;;4.65;;
11614;SDS011;5863;52.832;4.758;2024-02-21T02:05:09;23.40;;;4.75;;
11614;SDS011;5863;52.832;4.758;2024-02-21T02:07:39;24.65;;;4.78;;
11614;SDS011;5863;52.832;4.758;2024-02-21T02:10:06;21.60;;;4.22;;
11614;SDS011;5863;52.832;4.758;2024-02-21T02:12:35;32.63;;;5.15;;
11614;SDS011;5863;52.832;4.758;2024-02-21T02:15:02;27.48;;;5.32;;
11614;SDS011;5863;52.832;4.758;2024-02-21T02:17:30;16.13;;;4.13;;
11614;SDS011;5863;52.832;4.758;2024-02-21T02:19:57;26.05;;;4.50;;
11614;SDS011;5863;52.832;4.758;2024-02-21T02:22:28;25.60;;;5.95;;
11614;SDS011;5863;52.832;4.758;2024-02-21T02:24:56;30.63;;;5.57;;
11614;SDS011;5863;52.832;4.758;2024-02-21T02:27:23;28.35;;;5.15;;
11614;SDS011;5863;52.832;4.758;2024-02-21T02:29:50;26.92;;;5.15;;
11614;SDS011;5863;52.832;4.758;2024-02-21T02:32:17;23.95;;;4.82;;
11614;SDS011;5863;52.832;4.758;2024-02-21T02:34:44;33.38;;;5.30;;
11614;SDS011;5863;52.832;4.758;2024-02-21T02:37:11;22.50;;;4.63;;
11614;SDS011;5863;52.832;4.758;2024-02-21T02:39:38;25.15;;;4.50;;
11614;SDS011;5863;52.832;4.758;2024-02-21T02:42:06;27.15;;;4.82;;
11614;SDS011;5863;52.832;4.758;2024-02-21T02:44:33;27.40;;;5.18;;
11614;SDS011;5863;52.832;4.758;2024-02-21T02:47:00;30.40;;;5.22;;
11614;SDS011;5863;52.832;4.758;2024-02-21T02:49:27;24.85;;;4.80;;
11614;SDS011;5863;52.832;4.758;2024-02-21T02:51:54;26.25;;;4.95;;
11614;SDS011;5863;52.832;4.758;2024-02-21T02:54:21;25.95;;;5.53;;
11614;SDS011;5863;52.832;4.758;2024-02-21T02:56:47;22.50;;;4.50;;
11614;SDS011;5863;52.832;4.758;2024-02-21T02:59:18;25.33;;;4.85;;
11614;SDS011;5863;52.832;4.758;2024-02-21T03:01:44;23.17;;;4.18;;
11614;SDS011;5863;52.832;4.758;2024-02-21T03:04:11;26.20;;;5.85;;
11614;SDS011;5863;52.832;4.758;2024-02-21T03:06:38;24.95;;;4.75;;
11614;SDS011;5863;52.832;4.758;2024-02-21T03:09:05;28.30;;;4.55;;
11614;SDS011;5863;52.832;4.758;2024-02-21T03:11:35;26.38;;;4.38;;
11614;SDS011;5863;52.832;4.758;2024-02-21T03:14:05;26.63;;;4.70;;
11614;SDS011;5863;52.832;4.758;2024-02-21T03:16:34;25.27;;;5.07;;
11614;SDS011;5863;52.832;4.758;2024-02-21T03:19:00;24.48;;;4.72;;
11614;SDS011;5863;52.832;4.758;2024-02-21T03:21:28;17.50;;;3.60;;
11614;SDS011;5863;52.832;4.758;2024-02-21T03:23:55;24.45;;;4.40;;
11614;SDS011;5863;52.832;4.758;2024-02-21T03:26:22;16.02;;;4.30;;
11614;SDS011;5863;52.832;4.758;2024-02-21T03:28:48;23.00;;;3.92;;
11614;SDS011;5863;52.832;4.758;2024-02-21T03:31:15;18.10;;;5.22;;
11614;SDS011;5863;52.832;4.758;2024-02-21T03:33:43;26.17;;;5.40;;
11614;SDS011;5863;52.832;4.758;2024-02-21T03:36:14;20.77;;;4.82;;
11614;SDS011;5863;52.832;4.758;2024-02-21T03:38:41;19.55;;;4.45;;
11614;SDS011;5863;52.832;4.758;2024-02-21T03:41:08;19.42;;;4.10;;
11614;SDS011;5863;52.832;4.758;2024-02-21T03:43:35;26.30;;;5.15;;
11614;SDS011;5863;52.832;4.758;2024-02-21T03:46:03;24.30;;;4.57;;
11614;SDS011;5863;52.832;4.758;2024-02-21T03:48:30;20.83;;;4.20;;
11614;SDS011;5863;52.832;4.758;2024-02-21T03:50:59;19.88;;;4.30;;
11614;SDS011;5863;52.832;4.758;2024-02-21T03:53:26;22.02;;;5.10;;
11614;SDS011;5863;52.832;4.758;2024-02-21T03:55:53;26.27;;;4.40;;
11614;SDS011;5863;52.832;4.758;2024-02-21T03:58:20;23.05;;;5.40;;
11614;SDS011;5863;52.832;4.758;2024-02-21T04:00:47;22.45;;;5.25;;
11614;SDS011;5863;52.832;4.758;2024-02-21T04:03:14;24.85;;;4.13;;
11614;SDS011;5863;52.832;4.758;2024-02-21T04:05:41;23.92;;;5.25;;
11614;SDS011;5863;52.832;4.758;2024-02-21T04:08:09;19.00;;;3.92;;
11614;SDS011;5863;52.832;4.758;2024-02-21T04:10:36;24.98;;;4.53;;
11614;SDS011;5863;52.832;4.758;2024-02-21T04:13:03;27.08;;;4.75;;
11614;SDS011;5863;52.832;4.758;2024-02-21T04:15:31;28.77;;;4.90;;
11614;SDS011;5863;52.832;4.758;2024-02-21T04:17:58;20.90;;;4.00;;
11614;SDS011;5863;52.832;4.758;2024-02-21T04:20:25;25.80;;;4.28;;
11614;SDS011;5863;52.832;4.758;2024-02-21T04:22:52;16.38;;;3.95;;
11614;SDS011;5863;52.832;4.758;2024-02-21T04:25:20;20.98;;;3.97;;
11614;SDS011;5863;52.832;4.758;2024-02-21T04:27:47;25.15;;;4.25;;
11614;SDS011;5863;52.832;4.758;2024-02-21T04:30:14;33.67;;;4.65;;
11614;SDS011;5863;52.832;4.758;2024-02-21T04:32:41;18.58;;;4.20;;
11614;SDS011;5863;52.832;4.758;2024-02-21T04:35:08;21.83;;;4.35;;
11614;SDS011;5863;52.832;4.758;2024-02-21T04:37:35;25.67;;;5.00;;
11614;SDS011;5863;52.832;4.758;2024-02-21T04:40:02;22.25;;;4.00;;
11614;SDS011;5863;52.832;4.758;2024-02-21T04:42:30;19.95;;;4.13;;
11614;SDS011;5863;52.832;4.758;2024-02-21T04:44:57;18.25;;;3.70;;
11614;SDS011;5863;52.832;4.758;2024-02-21T04:47:24;22.60;;;4.60;;
11614;SDS011;5863;52.832;4.758;2024-02-21T04:49:51;26.40;;;4.40;;
11614;SDS011;5863;52.832;4.758;2024-02-21T04:52:18;18.50;;;4.47;;
11614;SDS011;5863;52.832;4.758;2024-02-21T04:54:45;23.38;;;3.97;;
11614;SDS011;5863;52.832;4.758;2024-02-21T04:57:12;17.98;;;4.35;;
11614;SDS011;5863;52.832;4.758;2024-02-21T04:59:43;18.48;;;3.47;;
11614;SDS011;5863;52.832;4.758;2024-02-21T05:02:10;17.90;;;4.13;;
11614;SDS011;5863;52.832;4.758;2024-02-21T05:04:37;20.80;;;3.67;;
11614;SDS011;5863;52.832;4.758;2024-02-21T05:07:05;22.83;;;4.35;;
11614;SDS011;5863;52.832;4.758;2024-02-21T05:09:32;17.25;;;4.20;;
11614;SDS011;5863;52.832;4.758;2024-02-21T05:11:59;18.88;;;4.82;;
11614;SDS011;5863;52.832;4.758;2024-02-21T05:14:26;22.10;;;4.63;;
11614;SDS011;5863;52.832;4.758;2024-02-21T05:16:54;22.15;;;4.80;;
11614;SDS011;5863;52.832;4.758;2024-02-21T05:19:21;24.67;;;5.15;;
11614;SDS011;5863;52.832;4.758;2024-02-21T05:21:48;27.23;;;6.05;;
11614;SDS011;5863;52.832;4.758;2024-02-21T05:24:14;26.67;;;5.88;;
11614;SDS011;5863;52.832;4.758;2024-02-21T05:26:41;22.42;;;4.38;;
11614;SDS011;5863;52.832;4.758;2024-02-21T05:29:08;35.28;;;4.85;;
11614;SDS011;5863;52.832;4.758;2024-02-21T05:31:42;22.88;;;4.72;;
11614;SDS011;5863;52.832;4.758;2024-02-21T05:34:23;29.05;;;4.90;;
11614;SDS011;5863;52.832;4.758;2024-02-21T05:36:50;24.27;;;4.75;;
11614;SDS011;5863;52.832;4.758;2024-02-21T05:39:17;22.58;;;4.47;;
11614;SDS011;5863;52.832;4.758;2024-02-21T05:41:44;33.22;;;4.82;;
11614;SDS011;5863;52.832;4.758;2024-02-21T05:44:11;14.65;;;3.92;;
11614;SDS011;5863;52.832;4.758;2024-02-21T05:46:38;20.10;;;4.32;;
11614;SDS011;5863;52.832;4.758;2024-02-21T05:49:07;25.80;;;5.05;;
11614;SDS011;5863;52.832;4.758;2024-02-21T05:51:34;25.25;;;4.95;;
11614;SDS011;5863;52.832;4.758;2024-02-21T05:54:01;27.25;;;4.88;;
11614;SDS011;5863;52.832;4.758;2024-02-21T05:56:28;22.75;;;5.80;;
11614;SDS011;5863;52.832;4.758;2024-02-21T05:58:55;22.85;;;4.60;;
11614;SDS011;5863;52.832;4.758;2024-02-21T06:01:22;31.92;;;5.28;;
11614;SDS011;5863;52.832;4.758;2024-02-21T06:03:49;27.75;;;4.50;;
11614;SDS011;5863;52.832;4.758;2024-02-21T06:06:25;33.15;;;5.75;;
11614;SDS011;5863;52.832;4.758;2024-02-21T06:08:52;21.58;;;4.97;;
11614;SDS011;5863;52.832;4.758;2024-02-21T06:11:19;16.98;;;5.10;;
11614;SDS011;5863;52.832;4.758;2024-02-21T06:13:45;22.20;;;5.60;;
11614;SDS011;5863;52.832;4.758;2024-02-21T06:16:12;28.83;;;5.55;;
11614;SDS011;5863;52.832;4.758;2024-02-21T06:18:39;28.45;;;5.47;;
11614;SDS011;5863;52.832;4.758;2024-02-21T06:21:06;23.90;;;4.85;;
11614;SDS011;5863;52.832;4.758;2024-02-21T06:23:36;27.45;;;5.50;;
11614;SDS011;5863;52.832;4.758;2024-02-21T06:26:03;26.60;;;5.10;;
11614;SDS011;5863;52.832;4.758;2024-02-21T06:28:30;36.25;;;6.00;;
11614;SDS011;5863;52.832;4.758;2024-02-21T06:30:57;24.50;;;4.43;;
11614;SDS011;5863;52.832;4.758;2024-02-21T06:33:24;22.27;;;5.20;;
11614;SDS011;5863;52.832;4.758;2024-02-21T06:35:50;26.92;;;5.13;;
11614;SDS011;5863;52.832;4.758;2024-02-21T06:38:19;23.33;;;4.85;;
11614;SDS011;5863;52.832;4.758;2024-02-21T06:40:47;25.52;;;5.10;;
11614;SDS011;5863;52.832;4.758;2024-02-21T06:43:17;22.52;;;4.68;;
11614;SDS011;5863;52.832;4.758;2024-02-21T06:45:45;18.83;;;5.32;;
11614;SDS011;5863;52.832;4.758;2024-02-21T06:48:15;22.52;;;5.22;;
11614;SDS011;5863;52.832;4.758;2024-02-21T06:50:43;24.73;;;5.70;;
11614;SDS011;5863;52.832;4.758;2024-02-21T06:53:10;19.02;;;6.53;;
11614;SDS011;5863;52.832;4.758;2024-02-21T06:55:37;19.85;;;6.25;;
11614;SDS011;5863;52.832;4.758;2024-02-21T06:58:05;22.58;;;7.13;;
11614;SDS011;5863;52.832;4.758;2024-02-21T07:00:36;23.25;;;6.88;;
11614;SDS011;5863;52.832;4.758;2024-02-21T07:03:04;18.38;;;7.25;;
11614;SDS011;5863;52.832;4.758;2024-02-21T07:05:31;16.98;;;7.03;;
11614;SDS011;5863;52.832;4.758;2024-02-21T07:07:58;30.38;;;7.30;;
11614;SDS011;5863;52.832;4.758;2024-02-21T07:10:24;21.05;;;7.47;;
11614;SDS011;5863;52.832;4.758;2024-02-21T07:12:52;16.45;;;6.85;;
11614;SDS011;5863;52.832;4.758;2024-02-21T07:15:21;15.45;;;6.68;;
11614;SDS011;5863;52.832;4.758;2024-02-21T07:17:47;20.13;;;6.95;;
11614;SDS011;5863;52.832;4.758;2024-02-21T07:20:14;21.15;;;6.35;;
11614;SDS011;5863;52.832;4.758;2024-02-21T07:22:41;20.35;;;7.47;;
11614;SDS011;5863;52.832;4.758;2024-02-21T07:25:08;18.63;;;6.78;;
11614;SDS011;5863;52.832;4.758;2024-02-21T07:27:35;18.40;;;7.13;;
11614;SDS011;5863;52.832;4.758;2024-02-21T07:30:03;21.33;;;6.90;;
11614;SDS011;5863;52.832;4.758;2024-02-21T07:32:32;16.73;;;6.75;;
11614;SDS011;5863;52.832;4.758;2024-02-21T07:34:58;16.33;;;6.68;;
11614;SDS011;5863;52.832;4.758;2024-02-21T07:37:25;16.80;;;6.57;;
11614;SDS011;5863;52.832;4.758;2024-02-21T07:39:52;20.60;;;6.90;;
11614;SDS011;5863;52.832;4.758;2024-02-21T07:42:19;22.30;;;6.65;;
11614;SDS011;5863;52.832;4.758;2024-02-21T07:44:46;16.10;;;6.45;;
11614;SDS011;5863;52.832;4.758;2024-02-21T07:47:13;19.55;;;7.55;;
11614;SDS011;5863;52.832;4.758;2024-02-21T07:52:14;20.13;;;7.38;;
11614;SDS011;5863;52.832;4.758;2024-02-21T07:54:41;15.68;;;6.43;;
11614;SDS011;5863;52.832;4.758;2024-02-21T07:57:08;18.65;;;6.90;;
11614;SDS011;5863;52.832;4.758;2024-02-21T07:59:35;19.52;;;7.57;;
11614;SDS011;5863;52.832;4.758;2024-02-21T08:02:02;18.75;;;7.45;;
11614;SDS011;5863;52.832;4.758;2024-02-21T08:04:31;17.83;;;6.97;;
11614;SDS011;5863;52.832;4.758;2024-02-21T08:07:00;15.30;;;7.43;;
11614;SDS011;5863;52.832;4.758;2024-02-21T08:09:29;21.55;;;7.40;;
11614;SDS011;5863;52.832;4.758;2024-02-21T08:11:56;19.30;;;6.88;;
11614;SDS011;5863;52.832;4.758;2024-02-21T08:14:23;16.27;;;7.38;;
11614;SDS011;5863;52.832;4.758;2024-02-21T08:16:50;15.63;;;7.35;;
11614;SDS011;5863;52.832;4.758;2024-02-21T08:19:18;16.05;;;6.90;;
11614;SDS011;5863;52.832;4.758;2024-02-21T08:21:45;18.48;;;7.30;;
11614;SDS011;5863;52.832;4.758;2024-02-21T08:24:14;19.30;;;7.85;;
11614;SDS011;5863;52.832;4.758;2024-02-21T08:26:41;15.43;;;7.85;;
11614;SDS011;5863;52.832;4.758;2024-02-21T08:29:09;14.52;;;7.97;;
11614;SDS011;5863;52.832;4.758;2024-02-21T08:31:36;13.93;;;7.63;;
11614;SDS011;5863;52.832;4.758;2024-02-21T08:34:03;17.42;;;7.43;;
11614;SDS011;5863;52.832;4.758;2024-02-21T08:36:30;16.98;;;7.63;;
11614;SDS011;5863;52.832;4.758;2024-02-21T08:38:58;19.05;;;7.95;;
11614;SDS011;5863;52.832;4.758;2024-02-21T08:41:26;19.83;;;8.75;;
11614;SDS011;5863;52.832;4.758;2024-02-21T08:43:53;19.13;;;8.00;;
11614;SDS011;5863;52.832;4.758;2024-02-21T08:46:21;13.75;;;7.75;;
11614;SDS011;5863;52.832;4.758;2024-02-21T08:48:49;18.45;;;7.40;;
11614;SDS011;5863;52.832;4.758;2024-02-21T08:51:16;22.48;;;8.15;;
11614;SDS011;5863;52.832;4.758;2024-02-21T08:53:43;18.70;;;8.38;;
11614;SDS011;5863;52.832;4.758;2024-02-21T08:56:11;22.60;;;8.45;;
11614;SDS011;5863;52.832;4.758;2024-02-21T08:58:40;15.02;;;7.78;;
11614;SDS011;5863;52.832;4.758;2024-02-21T09:01:07;14.65;;;7.97;;
11614;SDS011;5863;52.832;4.758;2024-02-21T09:03:35;19.10;;;8.63;;
11614;SDS011;5863;52.832;4.758;2024-02-21T09:06:03;15.00;;;8.98;;
11614;SDS011;5863;52.832;4.758;2024-02-21T09:08:31;17.23;;;8.70;;
11614;SDS011;5863;52.832;4.758;2024-02-21T09:10:58;16.35;;;8.95;;
11614;SDS011;5863;52.832;4.758;2024-02-21T09:13:27;22.83;;;9.82;;
11614;SDS011;5863;52.832;4.758;2024-02-21T09:15:55;18.45;;;9.80;;
11614;SDS011;5863;52.832;4.758;2024-02-21T09:18:22;18.85;;;10.05;;
11614;SDS011;5863;52.832;4.758;2024-02-21T09:20:49;16.08;;;10.02;;
11614;SDS011;5863;52.832;4.758;2024-02-21T09:23:16;19.38;;;11.05;;
11614;SDS011;5863;52.832;4.758;2024-02-21T09:25:44;15.38;;;9.85;;
11614;SDS011;5863;52.832;4.758;2024-02-21T09:28:12;15.68;;;10.35;;
11614;SDS011;5863;52.832;4.758;2024-02-21T09:30:39;16.33;;;11.18;;
11614;SDS011;5863;52.832;4.758;2024-02-21T09:33:07;15.75;;;10.60;;
11614;SDS011;5863;52.832;4.758;2024-02-21T09:35:34;17.55;;;11.07;;
11614;SDS011;5863;52.832;4.758;2024-02-21T09:38:01;21.25;;;11.50;;
11614;SDS011;5863;52.832;4.758;2024-02-21T09:40:28;16.77;;;11.50;;
11614;SDS011;5863;52.832;4.758;2024-02-21T09:42:58;16.23;;;11.40;;
11614;SDS011;5863;52.832;4.758;2024-02-21T09:45:31;19.95;;;11.15;;
11614;SDS011;5863;52.832;4.758;2024-02-21T09:48:04;17.52;;;11.45;;
11614;SDS011;5863;52.832;4.758;2024-02-21T09:50:43;14.07;;;10.32;;
11614;SDS011;5863;52.832;4.758;2024-02-21T09:53:11;15.85;;;10.43;;
11614;SDS011;5863;52.832;4.758;2024-02-21T09:55:39;12.90;;;9.10;;
11614;SDS011;5863;52.832;4.758;2024-02-21T09:58:07;16.15;;;10.02;;
11614;SDS011;5863;52.832;4.758;2024-02-21T10:00:34;17.10;;;9.52;;
11614;SDS011;5863;52.832;4.758;2024-02-21T10:03:02;14.52;;;9.40;;
11614;SDS011;5863;52.832;4.758;2024-02-21T10:05:35;14.45;;;9.20;;
11614;SDS011;5863;52.832;4.758;2024-02-21T10:08:04;13.70;;;9.23;;
11614;SDS011;5863;52.832;4.758;2024-02-21T10:10:40;15.55;;;9.32;;
11614;SDS011;5863;52.832;4.758;2024-02-21T10:13:09;15.23;;;8.80;;
11614;SDS011;5863;52.832;4.758;2024-02-21T10:15:36;14.52;;;9.40;;
11614;SDS011;5863;52.832;4.758;2024-02-21T10:18:03;14.50;;;9.93;;
11614;SDS011;5863;52.832;4.758;2024-02-21T10:20:31;13.50;;;10.55;;
11614;SDS011;5863;52.832;4.758;2024-02-21T10:23:04;15.40;;;10.98;;
11614;SDS011;5863;52.832;4.758;2024-02-21T10:25:34;12.98;;;10.85;;
11614;SDS011;5863;52.832;4.758;2024-02-21T10:28:03;16.90;;;11.48;;
11614;SDS011;5863;52.832;4.758;2024-02-21T10:30:30;13.93;;;10.48;;
11614;SDS011;5863;52.832;4.758;2024-02-21T10:32:57;13.45;;;10.75;;
11614;SDS011;5863;52.832;4.758;2024-02-21T10:35:27;14.65;;;10.43;;
11614;SDS011;5863;52.832;4.758;2024-02-21T10:37:55;11.80;;;10.10;;
11614;SDS011;5863;52.832;4.758;2024-02-21T10:40:24;11.90;;;9.32;;
11614;SDS011;5863;52.832;4.758;2024-02-21T10:42:54;12.57;;;10.60;;
11614;SDS011;5863;52.832;4.758;2024-02-21T10:45:24;14.07;;;9.90;;
11614;SDS011;5863;52.832;4.758;2024-02-21T10:47:59;12.13;;;9.18;;
11614;SDS011;5863;52.832;4.758;2024-02-21T10:50:35;12.85;;;10.07;;
11614;SDS011;5863;52.832;4.758;2024-02-21T10:53:15;13.38;;;8.93;;
11614;SDS011;5863;52.832;4.758;2024-02-21T10:55:54;14.80;;;9.00;;
11614;SDS011;5863;52.832;4.758;2024-02-21T10:58:28;16.75;;;9.25;;
11614;SDS011;5863;52.832;4.758;2024-02-21T11:00:56;11.52;;;8.63;;
11614;SDS011;5863;52.832;4.758;2024-02-21T11:03:23;13.07;;;9.18;;
11614;SDS011;5863;52.832;4.758;2024-02-21T11:05:50;12.95;;;8.85;;
11614;SDS011;5863;52.832;4.758;2024-02-21T11:08:18;13.35;;;9.13;;
11614;SDS011;5863;52.832;4.758;2024-02-21T11:10:46;10.70;;;9.20;;
11614;SDS011;5863;52.832;4.758;2024-02-21T11:13:14;13.50;;;9.20;;
11614;SDS011;5863;52.832;4.758;2024-02-21T11:15:41;11.95;;;9.00;;
11614;SDS011;5863;52.832;4.758;2024-02-21T11:18:08;12.60;;;9.18;;
11614;SDS011;5863;52.832;4.758;2024-02-21T11:20:36;12.77;;;9.05;;
11614;SDS011;5863;52.832;4.758;2024-02-21T11:23:04;12.93;;;8.60;;
11614;SDS011;5863;52.832;4.758;2024-02-21T11:25:31;10.55;;;8.38;;
11614;SDS011;5863;52.832;4.758;2024-02-21T11:27:59;11.95;;;8.95;;
11614;SDS011;5863;52.832;4.758;2024-02-21T11:30:29;13.07;;;8.57;;
11614;SDS011;5863;52.832;4.758;2024-02-21T11:33:01;13.50;;;8.00;;
11614;SDS011;5863;52.832;4.758;2024-02-21T11:35:31;12.73;;;8.18;;
11614;SDS011;5863;52.832;4.758;2024-02-21T11:38:09;10.25;;;8.70;;
11614;SDS011;5863;52.832;4.758;2024-02-21T11:40:39;11.95;;;9.23;;
11614;SDS011;5863;52.832;4.758;2024-02-21T11:43:07;12.35;;;9.18;;
11614;SDS011;5863;52.832;4.758;2024-02-21T11:45:35;15.98;;;11.00;;
11614;SDS011;5863;52.832;4.758;2024-02-21T11:48:03;13.63;;;11.43;;
11614;SDS011;5863;52.832;4.758;2024-02-21T11:50:32;13.82;;;10.95;;
11614;SDS011;5863;52.832;4.758;2024-02-21T11:53:00;15.50;;;11.35;;
11614;SDS011;5863;52.832;4.758;2024-02-21T11:55:28;15.30;;;11.38;;
11614;SDS011;5863;52.832;4.758;2024-02-21T11:57:55;14.77;;;11.75;;
11614;SDS011;5863;52.832;4.758;2024-02-21T12:00:22;15.77;;;11.43;;
11614;SDS011;5863;52.832;4.758;2024-02-21T12:02:52;12.75;;;11.05;;
11614;SDS011;5863;52.832;4.758;2024-02-21T12:05:25;15.18;;;11.98;;
11614;SDS011;5863;52.832;4.758;2024-02-21T12:07:54;16.33;;;12.25;;
11614;SDS011;5863;52.832;4.758;2024-02-21T12:10:21;16.17;;;11.65;;
11614;SDS011;5863;52.832;4.758;2024-02-21T12:12:47;13.68;;;11.98;;
11614;SDS011;5863;52.832;4.758;2024-02-21T12:15:17;13.68;;;11.32;;
11614;SDS011;5863;52.832;4.758;2024-02-21T12:17:45;15.35;;;11.75;;
11614;SDS011;5863;52.832;4.758;2024-02-21T12:20:14;14.40;;;11.65;;
11614;SDS011;5863;52.832;4.758;2024-02-21T12:22:41;15.05;;;11.85;;
11614;SDS011;5863;52.832;4.758;2024-02-21T12:25:15;12.68;;;10.90;;
11614;SDS011;5863;52.832;4.758;2024-02-21T12:27:43;13.68;;;10.85;;
11614;SDS011;5863;52.832;4.758;2024-02-21T12:30:10;14.57;;;11.02;;
11614;SDS011;5863;52.832;4.758;2024-02-21T12:32:37;12.50;;;10.80;;
11614;SDS011;5863;52.832;4.758;2024-02-21T12:35:06;11.98;;;10.10;;
11614;SDS011;5863;52.832;4.758;2024-02-21T12:37:35;11.52;;;9.60;;
11614;SDS011;5863;52.832;4.758;2024-02-21T12:40:03;11.13;;;9.40;;
11614;SDS011;5863;52.832;4.758;2024-02-21T12:42:31;10.35;;;8.80;;
11614;SDS011;5863;52.832;4.758;2024-02-21T12:44:59;10.40;;;8.93;;
11614;SDS011;5863;52.832;4.758;2024-02-21T12:47:26;12.68;;;9.85;;
11614;SDS011;5863;52.832;4.758;2024-02-21T12:49:53;11.00;;;8.63;;
11614;SDS011;5863;52.832;4.758;2024-02-21T12:52:20;12.77;;;9.48;;
11614;SDS011;5863;52.832;4.758;2024-02-21T12:54:48;11.93;;;8.35;;
11614;SDS011;5863;52.832;4.758;2024-02-21T12:57:16;10.45;;;8.80;;
11614;SDS011;5863;52.832;4.758;2024-02-21T12:59:43;9.68;;;8.20;;
11614;SDS011;5863;52.832;4.758;2024-02-21T13:02:10;9.00;;;7.10;;
11614;SDS011;5863;52.832;4.758;2024-02-21T13:04:37;8.38;;;7.40;;
11614;SDS011;5863;52.832;4.758;2024-02-21T13:07:05;10.65;;;7.45;;
11614;SDS011;5863;52.832;4.758;2024-02-21T13:09:33;10.10;;;7.68;;
11614;SDS011;5863;52.832;4.758;2024-02-21T13:12:01;8.93;;;7.80;;
11614;SDS011;5863;52.832;4.758;2024-02-21T13:14:28;11.50;;;7.45;;
11614;SDS011;5863;52.832;4.758;2024-02-21T13:16:58;10.57;;;7.40;;
11614;SDS011;5863;52.832;4.758;2024-02-21T13:19:24;10.55;;;7.00;;
11614;SDS011;5863;52.832;4.758;2024-02-21T13:21:51;12.93;;;7.30;;
11614;SDS011;5863;52.832;4.758;2024-02-21T13:24:18;8.63;;;6.63;;
11614;SDS011;5863;52.832;4.758;2024-02-21T13:26:45;10.15;;;6.03;;
11614;SDS011;5863;52.832;4.758;2024-02-21T13:29:13;9.68;;;6.47;;
11614;SDS011;5863;52.832;4.758;2024-02-21T13:31:40;9.00;;;6.20;;
11614;SDS011;5863;52.832;4.758;2024-02-21T13:34:07;7.50;;;5.65;;
11614;SDS011;5863;52.832;4.758;2024-02-21T13:36:34;9.00;;;5.80;;
11614;SDS011;5863;52.832;4.758;2024-02-21T13:39:01;7.78;;;4.63;;
11614;SDS011;5863;52.832;4.758;2024-02-21T13:41:30;5.40;;;4.88;;
11614;SDS011;5863;52.832;4.758;2024-02-21T13:43:57;6.20;;;5.00;;
11614;SDS011;5863;52.832;4.758;2024-02-21T13:46:26;7.60;;;5.53;;
11614;SDS011;5863;52.832;4.758;2024-02-21T13:48:54;9.00;;;5.38;;
11614;SDS011;5863;52.832;4.758;2024-02-21T13:51:31;6.07;;;4.60;;
11614;SDS011;5863;52.832;4.758;2024-02-21T13:53:58;6.40;;;4.90;;
11614;SDS011;5863;52.832;4.758;2024-02-21T13:56:25;5.93;;;4.70;;
11614;SDS011;5863;52.832;4.758;2024-02-21T13:58:52;6.97;;;4.88;;
11614;SDS011;5863;52.832;4.758;2024-02-21T14:01:19;6.43;;;5.00;;
11614;SDS011;5863;52.832;4.758;2024-02-21T14:03:47;6.47;;;4.68;;
11614;SDS011;5863;52.832;4.758;2024-02-21T14:06:14;5.47;;;4.68;;
11614;SDS011;5863;52.832;4.758;2024-02-21T14:08:42;6.07;;;4.75;;
11614;SDS011;5863;52.832;4.758;2024-02-21T14:11:09;8.38;;;4.65;;
11614;SDS011;5863;52.832;4.758;2024-02-21T14:13:36;7.25;;;4.82;;
11614;SDS011;5863;52.832;4.758;2024-02-21T14:16:03;5.95;;;5.28;;
11614;SDS011;5863;52.832;4.758;2024-02-21T14:18:37;7.82;;;5.25;;
11614;SDS011;5863;52.832;4.758;2024-02-21T14:21:07;9.23;;;4.93;;
11614;SDS011;5863;52.832;4.758;2024-02-21T14:23:35;8.15;;;5.38;;
11614;SDS011;5863;52.832;4.758;2024-02-21T14:26:02;7.68;;;5.60;;
11614;SDS011;5863;52.832;4.758;2024-02-21T14:28:29;8.93;;;5.75;;
11614;SDS011;5863;52.832;4.758;2024-02-21T14:30:56;7.22;;;5.97;;
11614;SDS011;5863;52.832;4.758;2024-02-21T14:33:25;9.15;;;6.07;;
11614;SDS011;5863;52.832;4.758;2024-02-21T14:35:52;8.80;;;6.47;;
11614;SDS011;5863;52.832;4.758;2024-02-21T14:38:20;10.10;;;6.25;;
11614;SDS011;5863;52.832;4.758;2024-02-21T14:40:47;9.02;;;7.07;;
11614;SDS011;5863;52.832;4.758;2024-02-21T14:43:14;8.65;;;7.57;;
11614;SDS011;5863;52.832;4.758;2024-02-21T14:45:42;12.82;;;8.52;;
11614;SDS011;5863;52.832;4.758;2024-02-21T14:48:12;12.25;;;8.82;;
11614;SDS011;5863;52.832;4.758;2024-02-21T14:50:39;11.85;;;9.02;;
11614;SDS011;5863;52.832;4.758;2024-02-21T14:53:06;14.85;;;10.23;;
11614;SDS011;5863;52.832;4.758;2024-02-21T14:55:35;12.88;;;10.98;;